Time;durP1;ratioP1;P1;durP2;ratioP2;P2;SDS_P1;SDS_P2;PMS_P1;PMS_P2;Temp;Humidity;BMP_temperature;BMP_pressure;BME280_temperature;BME280_humidity;BME280_pressure;Samples;Min_cycle;Max_cycle;Signal;HPM_P1;HPM_P2
2021/11/04 06:26:26;;;;;;;;;0.00;0.00;;;;;;;;4815569;29;8980;-88
2021/11/04 06:57:54;;;;;;;;;;;;;;;;;;;;;
2021/11/04 07:13:05;;;;;;;;;0.00;0.00;;;;;;;;4660162;30;8804;-90
2021/11/04 07:15:37;;;;;;;;;0.00;0.00;;;;;;;;4752881;30;10139;-90
2021/11/04 07:18:25;;;;;;;;;0.00;0.00;;;;;;;;4856963;29;8814;-89
2021/11/04 07:21:41;;;;;;;;;;;;;;;;;;;;;
2021/11/04 07:24:41;;;;;;;;;;;;;;;;;;;;;
2021/11/04 07:30:58;;;;;;;;;0.00;0.00;;;;;;;;4935993;28;8789;-92
2021/11/04 07:37:11;;;;;;;;;;;;;;;;;;;;;
2021/11/04 07:45:03;;;;;;;;;0.00;0.00;;;;;;;;4973010;28;8987;-87
2021/11/04 07:47:32;;;;;;;;;0.00;0.00;;;;;;;;4957876;28;8800;-91
2021/11/04 07:50:20;;;;;;;;;0.00;0.00;;;;;;;;4974995;28;9596;-89
2021/11/04 07:53:16;;;;;;;;;;;;;;;;;;;;;
2021/11/04 07:56:14;;;;;;;;;;;;;;;;;;;;;
2021/11/04 07:58:43;;;;;;;;;0.00;0.00;;;;;;;;4971543;28;37120;-88
2021/11/04 08:01:14;;;;;;;;;0.00;0.00;;;;;;;;4946435;28;8832;-88
2021/11/04 08:03:41;;;;;;;;;0.00;0.00;;;;;;;;5024751;28;8812;-88
2021/11/04 08:06:09;;;;;;;;;0.00;0.00;;;;;;;;5028595;28;8812;-87
2021/11/04 08:09:00;;;;;;;;;0.00;0.00;;;;;;;;5018474;28;8819;-85
2021/11/04 08:11:27;;;;;;;;;0.00;0.00;;;;;;;;5013140;28;8915;-84
2021/11/04 08:14:00;;;;;;;;;0.00;0.00;;;;;;;;5017888;28;8825;-88
2021/11/04 08:16:29;;;;;;;;;0.00;0.00;;;;;;;;5011268;28;8823;-87
2021/11/04 08:18:54;;;;;;;;;0.00;0.00;;;;;;;;5029229;28;8848;-88
2021/11/04 08:21:19;;;;;;;;;0.00;0.00;;;;;;;;5016969;28;8796;-88
2021/11/04 08:23:45;;;;;;;;;0.00;0.00;;;;;;;;5017543;28;8964;-87
2021/11/04 08:26:12;;;;;;;;;0.00;0.00;;;;;;;;5034885;28;8825;-87
2021/11/04 08:28:37;;;;;;;;;0.00;0.00;;;;;;;;5025781;28;8795;-88
2021/11/04 08:31:02;;;;;;;;;0.00;0.00;;;;;;;;5018319;28;9216;-88
2021/11/04 08:33:31;;;;;;;;;0.00;0.00;;;;;;;;5018523;28;8894;-88
2021/11/04 08:35:56;;;;;;;;;0.00;0.00;;;;;;;;5033471;28;8797;-87
2021/11/04 08:38:22;;;;;;;;;0.00;0.00;;;;;;;;5020634;28;8780;-88
2021/11/04 08:40:47;;;;;;;;;0.00;0.00;;;;;;;;5016715;28;8828;-87
2021/11/04 08:43:12;;;;;;;;;0.00;0.00;;;;;;;;5015587;28;9256;-87
2021/11/04 08:45:38;;;;;;;;;0.00;0.00;;;;;;;;5016832;28;8821;-87
2021/11/04 09:23:47;;;;;;;;;;;;;;;;;;;;;
2021/11/04 09:27:01;;;;;;;;;;;;;;;;;;;;;
2021/11/04 12:06:08;;;;;;;;;0.00;0.00;;;;;;;;4989701;28;8786;-94
2021/11/04 12:17:05;;;;;;;;;0.00;0.00;;;;;;;;4998993;28;8918;-95
2021/11/04 12:23:21;;;;;;;;;0.00;0.00;;;;;;;;4917838;29;8800;-94
2021/11/04 13:28:48;;;;;;;;;0.00;0.00;;;;;;;;5024275;28;8976;-93
2021/11/04 13:40:44;;;;;;;;;0.00;0.00;;;;;;;;5024730;28;8779;-89
2021/11/04 15:26:51;;;;;;;;;0.00;0.00;;;;;;;;4932497;28;8824;-90
2021/11/04 15:29:23;;;;;;;;;0.00;0.00;;;;;;;;4992917;28;8958;-91
2021/11/04 15:35:12;;;;;;;;;;;;;;;;;;;;;
